Time;durP1;ratioP1;P1;durP2;ratioP2;P2;SDS_P1;SDS_P2;PMS_P1;PMS_P2;Temp;Humidity;BMP_temperature;BMP_pressure;BME280_temperature;BME280_humidity;BME280_pressure;Samples;Min_cycle;Max_cycle;Signal;HPM_P1;HPM_P2
2022/10/05 00:00:17;;;;;;;6.00;4.57;;;11.70;99.90;;;;;;933479;151;27457;-79
2022/10/05 00:02:43;;;;;;;4.00;3.60;;;11.60;99.90;;;;;;934253;151;27343;-79
2022/10/05 00:05:16;;;;;;;6.57;3.80;;;11.60;99.90;;;;;;932760;151;27306;-79
2022/10/05 00:07:42;;;;;;;4.40;4.00;;;11.60;99.90;;;;;;934549;151;27376;-80
2022/10/05 00:10:09;;;;;;;4.27;3.87;;;11.60;99.90;;;;;;935945;151;27341;-80
2022/10/05 00:12:36;;;;;;;5.13;4.60;;;11.50;99.90;;;;;;936747;151;27394;-79
2022/10/05 00:15:02;;;;;;;8.73;4.47;;;11.50;99.90;;;;;;935921;151;27280;-79
2022/10/05 00:17:29;;;;;;;5.63;4.20;;;11.50;99.90;;;;;;932657;148;27460;-79
2022/10/05 00:19:55;;;;;;;6.67;4.50;;;11.50;99.90;;;;;;937535;148;27343;-79
2022/10/05 00:22:22;;;;;;;5.77;4.37;;;11.50;99.90;;;;;;937293;149;27355;-79
2022/10/05 00:24:49;;;;;;;5.00;4.40;;;11.40;99.90;;;;;;933877;148;27465;-79
2022/10/05 00:27:21;;;;;;;5.00;4.50;;;11.40;99.90;;;;;;935669;148;27414;-79
2022/10/05 00:29:47;;;;;;;4.20;3.80;;;11.40;99.90;;;;;;935429;151;27424;-78
2022/10/05 00:32:14;;;;;;;4.80;3.80;;;11.40;99.90;;;;;;934952;149;27313;-78
2022/10/05 00:34:41;;;;;;;4.80;3.90;;;11.30;99.90;;;;;;936272;151;27425;-78
2022/10/05 00:37:07;;;;;;;5.23;4.07;;;11.30;99.90;;;;;;935964;151;27512;-78
2022/10/05 00:39:34;;;;;;;5.67;3.87;;;11.30;99.90;;;;;;936144;151;27314;-78
2022/10/05 00:42:22;;;;;;;4.70;3.87;;;11.20;99.90;;;;;;935121;151;27290;-78
2022/10/05 00:45:03;;;;;;;4.70;4.30;;;11.20;99.90;;;;;;935343;151;27954;-79
2022/10/05 00:47:41;;;;;;;7.23;4.73;;;11.20;99.90;;;;;;933168;151;27502;-78
2022/10/05 00:50:26;;;;;;;6.10;4.20;;;11.10;99.90;;;;;;936362;151;27351;-79
2022/10/05 00:53:11;;;;;;;4.37;3.70;;;11.10;99.90;;;;;;935604;151;27446;-78
2022/10/05 00:55:47;;;;;;;7.93;4.27;;;11.00;99.90;;;;;;933678;151;27320;-78
2022/10/05 00:58:32;;;;;;;5.93;4.37;;;11.00;99.90;;;;;;920460;154;27283;-78
2022/10/05 01:01:07;;;;;;;5.47;4.37;;;10.90;99.90;;;;;;919708;152;27503;-79
2022/10/05 01:03:37;;;;;;;5.00;4.30;;;10.90;99.90;;;;;;920877;154;27307;-78
2022/10/05 01:06:09;;;;;;;4.90;4.50;;;10.90;99.90;;;;;;920709;152;27360;-79
2022/10/05 01:08:54;;;;;;;5.60;3.80;;;10.80;99.90;;;;;;922549;153;27459;-79
2022/10/05 01:11:42;;;;;;;4.70;4.30;;;10.80;99.90;;;;;;921072;151;27332;-79
2022/10/05 01:14:14;;;;;;;4.33;3.93;;;10.80;99.90;;;;;;938578;151;27330;-79
2022/10/05 01:17:05;;;;;;;7.00;4.53;;;10.80;99.90;;;;;;919274;152;27410;-78
2022/10/05 01:19:40;;;;;;;4.23;3.83;;;10.80;99.90;;;;;;919990;152;27419;-78
2022/10/05 01:22:28;;;;;;;4.87;3.90;;;10.70;99.90;;;;;;917582;153;27387;-78
2022/10/05 01:25:06;;;;;;;7.57;4.27;;;10.70;99.90;;;;;;919315;152;27319;-79
2022/10/05 01:27:33;;;;;;;4.90;3.50;;;10.70;99.90;;;;;;936200;151;27328;-79
2022/10/05 01:30:11;;;;;;;3.60;3.30;;;10.70;99.90;;;;;;935805;148;27338;-78
2022/10/05 01:32:59;;;;;;;4.17;3.60;;;10.70;99.90;;;;;;934819;151;27393;-79
2022/10/05 01:35:44;;;;;;;4.20;3.87;;;10.60;99.90;;;;;;935076;151;27458;-78
2022/10/05 01:38:20;;;;;;;3.60;3.17;;;10.60;99.90;;;;;;919232;153;27264;-79
2022/10/05 01:41:19;;;;;;;4.03;3.73;;;10.60;99.90;;;;;;937074;148;27264;-79
2022/10/05 01:43:51;;;;;;;3.33;3.03;;;10.50;99.90;;;;;;934365;149;27366;-79
2022/10/05 01:46:21;;;;;;;4.57;3.73;;;10.50;99.90;;;;;;933771;151;27500;-79
2022/10/05 01:49:15;;;;;;;3.73;3.43;;;10.50;99.90;;;;;;935357;151;27478;-79
2022/10/05 01:51:53;;;;;;;5.80;3.40;;;10.50;99.90;;;;;;936377;148;27380;-79
2022/10/05 01:54:32;;;;;;;4.67;4.00;;;10.40;99.90;;;;;;933119;151;27358;-79
2022/10/05 01:56:59;;;;;;;5.27;4.17;;;10.40;99.90;;;;;;934678;151;27358;-79
2022/10/05 02:00:03;;;;;;;4.53;4.00;;;10.40;99.90;;;;;;933995;148;27467;-78
2022/10/05 02:02:29;;;;;;;6.67;3.63;;;10.30;99.90;;;;;;935020;151;27377;-78
2022/10/05 02:05:10;;;;;;;5.13;3.70;;;10.30;99.90;;;;;;933895;148;27811;-78
2022/10/05 02:07:43;;;;;;;4.23;3.90;;;10.40;99.90;;;;;;934655;151;27377;-78
2022/10/05 02:10:18;;;;;;;3.47;3.17;;;10.40;99.90;;;;;;934707;151;27355;-79
2022/10/05 02:12:45;;;;;;;5.07;4.00;;;10.40;99.90;;;;;;922808;151;27360;-79
2022/10/05 02:15:11;;;;;;;4.17;3.83;;;10.40;99.90;;;;;;918090;154;27306;-78
2022/10/05 02:17:38;;;;;;;3.90;3.53;;;10.40;99.90;;;;;;935684;149;27390;-78
2022/10/05 02:20:05;;;;;;;6.40;3.97;;;10.40;99.90;;;;;;934158;148;27514;-78
2022/10/05 02:22:43;;;;;;;4.33;3.80;;;10.40;99.90;;;;;;931231;151;27342;-78
2022/10/05 02:25:09;;;;;;;4.30;3.90;;;10.40;99.90;;;;;;922027;152;27329;-79
2022/10/05 02:27:36;;;;;;;5.33;3.57;;;10.40;99.90;;;;;;930432;152;27347;-78
2022/10/05 02:30:02;;;;;;;4.80;4.13;;;10.40;99.90;;;;;;917703;154;27413;-78
2022/10/05 02:32:29;;;;;;;3.47;3.17;;;10.40;99.90;;;;;;935552;151;27363;-78
2022/10/05 02:34:56;;;;;;;3.90;3.50;;;10.40;99.90;;;;;;933859;151;27326;-80
2022/10/05 02:37:40;;;;;;;4.13;3.80;;;10.40;99.90;;;;;;934773;151;27319;-81
2022/10/05 02:40:16;;;;;;;3.53;3.23;;;10.40;99.90;;;;;;933997;149;27466;-79
2022/10/05 02:42:45;;;;;;;4.00;3.67;;;10.40;99.90;;;;;;933443;151;27465;-78
2022/10/05 02:45:30;;;;;;;4.67;4.27;;;10.40;99.90;;;;;;933433;151;27406;-79
2022/10/05 02:47:59;;;;;;;4.77;4.00;;;10.40;99.90;;;;;;934936;151;27275;-79
2022/10/05 02:50:53;;;;;;;4.07;3.67;;;10.40;99.90;;;;;;934685;149;27412;-79
2022/10/05 02:53:23;;;;;;;5.57;3.73;;;10.40;99.90;;;;;;934679;148;27430;-79
2022/10/05 02:56:16;;;;;;;4.20;3.80;;;10.30;99.90;;;;;;933939;148;27361;-79
2022/10/05 02:59:13;;;;;;;3.80;3.50;;;10.30;99.90;;;;;;939506;147;27347;-79
2022/10/05 03:01:45;;;;;;;4.10;3.70;;;10.30;99.90;;;;;;938469;147;28012;-79
2022/10/05 03:04:43;;;;;;;4.10;3.37;;;10.30;99.90;;;;;;929733;150;27819;-79
2022/10/05 03:07:09;;;;;;;4.47;3.40;;;10.30;99.90;;;;;;930370;150;27332;-79
2022/10/05 03:09:36;;;;;;;3.93;3.63;;;10.30;99.90;;;;;;930364;149;27326;-78
2022/10/05 03:12:03;;;;;;;4.97;3.73;;;10.30;99.90;;;;;;931807;150;27338;-78
2022/10/05 03:14:48;;;;;;;4.50;4.10;;;10.30;99.90;;;;;;930964;148;27394;-78
2022/10/05 03:17:20;;;;;;;4.50;3.87;;;10.30;99.90;;;;;;928852;150;27408;-78
2022/10/05 03:20:04;;;;;;;4.77;3.57;;;10.30;99.90;;;;;;930375;150;27460;-79
2022/10/05 03:22:49;;;;;;;4.53;3.87;;;10.30;99.90;;;;;;912761;150;27450;-78
2022/10/05 03:25:24;;;;;;;3.80;3.50;;;10.40;99.90;;;;;;929719;150;27288;-79
2022/10/05 03:27:57;;;;;;;6.83;3.70;;;10.40;99.90;;;;;;928265;150;27388;-79
2022/10/05 03:30:25;;;;;;;5.07;4.60;;;10.40;99.90;;;;;;931049;150;27498;-79
2022/10/05 03:33:02;;;;;;;7.10;4.97;;;10.40;99.90;;;;;;919654;150;27462;-78
2022/10/05 03:35:56;;;;;;;4.93;4.20;;;10.40;99.90;;;;;;934023;148;27319;-78
2022/10/05 03:38:41;;;;;;;3.90;3.60;;;10.50;99.90;;;;;;934868;148;27422;-79
2022/10/05 03:41:28;;;;;;;4.23;3.63;;;10.50;99.90;;;;;;934029;148;27469;-78
2022/10/05 03:44:16;;;;;;;7.17;3.93;;;10.50;99.90;;;;;;933481;148;27422;-78
2022/10/05 03:46:58;;;;;;;4.97;3.60;;;10.50;99.90;;;;;;934461;148;27375;-79
2022/10/05 03:49:49;;;;;;;4.13;3.43;;;10.50;99.90;;;;;;933978;148;28137;-79
2022/10/05 03:52:16;;;;;;;5.33;4.00;;;10.50;99.90;;;;;;931888;149;27358;-79
2022/10/05 03:54:48;;;;;;;4.77;4.00;;;10.50;99.90;;;;;;933402;149;27333;-79
2022/10/05 03:57:18;;;;;;;3.77;3.40;;;10.50;99.90;;;;;;933340;149;27449;-79
2022/10/05 03:59:53;;;;;;;4.83;3.97;;;10.50;99.90;;;;;;931001;149;27428;-79
2022/10/05 04:02:26;;;;;;;4.73;3.77;;;10.50;99.90;;;;;;922263;149;27476;-79
2022/10/05 04:04:52;;;;;;;8.03;3.33;;;10.50;99.90;;;;;;930454;149;27845;-79
2022/10/05 04:07:37;;;;;;;4.30;3.73;;;10.50;99.90;;;;;;930911;149;27351;-79
2022/10/05 04:10:03;;;;;;;5.17;3.77;;;10.50;99.90;;;;;;933195;149;27455;-79
2022/10/05 04:12:30;;;;;;;6.00;4.17;;;10.50;99.90;;;;;;933286;149;27805;-79
2022/10/05 04:14:57;;;;;;;4.50;4.10;;;10.50;99.90;;;;;;933741;149;27362;-79
2022/10/05 04:17:38;;;;;;;5.67;4.30;;;10.50;99.90;;;;;;930886;149;28350;-79
2022/10/05 04:20:19;;;;;;;5.13;4.27;;;10.40;99.90;;;;;;931144;149;27355;-80
2022/10/05 04:22:46;;;;;;;4.30;3.87;;;10.40;99.90;;;;;;930997;149;27440;-79
2022/10/05 04:25:18;;;;;;;5.37;4.10;;;10.40;99.90;;;;;;931283;149;27397;-80
2022/10/05 04:27:45;;;;;;;5.17;4.37;;;10.30;99.90;;;;;;933420;149;27373;-80
2022/10/05 04:30:11;;;;;;;4.67;3.93;;;10.30;99.90;;;;;;933960;149;27283;-79
2022/10/05 04:32:38;;;;;;;5.63;3.77;;;10.30;99.90;;;;;;931557;149;27420;-79
2022/10/05 04:35:08;;;;;;;4.00;3.70;;;10.30;99.90;;;;;;930986;149;27425;-79
2022/10/05 04:37:34;;;;;;;4.47;4.07;;;10.20;99.90;;;;;;931959;149;27497;-79
2022/10/05 04:40:24;;;;;;;6.23;4.50;;;10.20;99.90;;;;;;930751;149;27358;-79
2022/10/05 04:42:57;;;;;;;5.07;3.80;;;10.10;99.90;;;;;;932296;149;27321;-79
2022/10/05 04:45:39;;;;;;;3.90;3.60;;;10.10;99.90;;;;;;917970;150;27319;-79
2022/10/05 04:48:36;;;;;;;4.47;3.90;;;10.00;99.90;;;;;;916611;150;27844;-80
2022/10/05 04:51:37;;;;;;;3.63;3.07;;;10.00;99.90;;;;;;933451;148;27370;-79
2022/10/05 04:54:24;;;;;;;4.63;3.33;;;9.90;99.90;;;;;;935302;148;27376;-80
2022/10/05 04:56:56;;;;;;;5.30;3.80;;;9.80;99.90;;;;;;936106;151;27415;-79
2022/10/05 04:59:25;;;;;;;4.57;3.87;;;9.70;99.90;;;;;;935475;151;27386;-79
2022/10/05 05:02:13;;;;;;;5.13;4.20;;;9.60;99.90;;;;;;933796;151;27474;-79
2022/10/05 05:04:54;;;;;;;5.27;4.20;;;9.60;99.90;;;;;;934406;151;27507;-80
2022/10/05 05:07:27;;;;;;;4.57;4.17;;;9.60;99.90;;;;;;935581;151;27483;-80
2022/10/05 05:10:02;;;;;;;8.13;4.13;;;9.50;99.90;;;;;;934057;151;27339;-79
2022/10/05 05:12:47;;;;;;;3.90;3.60;;;9.50;99.90;;;;;;931675;149;27757;-79
2022/10/05 05:15:14;;;;;;;5.37;3.80;;;9.50;99.90;;;;;;933412;148;27342;-79
2022/10/05 05:17:52;;;;;;;4.83;3.80;;;9.40;99.90;;;;;;936329;151;27324;-79
2022/10/05 05:20:42;;;;;;;4.17;3.60;;;9.40;99.90;;;;;;936085;151;27373;-79
2022/10/05 05:23:18;;;;;;;5.60;3.90;;;9.30;99.90;;;;;;935654;151;27343;-79
2022/10/05 05:25:57;;;;;;;4.97;4.33;;;9.30;99.90;;;;;;921588;151;27438;-79
2022/10/05 05:28:41;;;;;;;5.37;3.63;;;9.30;99.90;;;;;;920930;151;27359;-79
2022/10/05 05:31:27;;;;;;;4.63;3.50;;;9.30;99.90;;;;;;916456;154;27355;-79
2022/10/05 05:34:11;;;;;;;3.80;3.47;;;9.30;99.90;;;;;;924354;151;27342;-78
2022/10/05 05:36:56;;;;;;;4.10;3.70;;;9.20;99.90;;;;;;935507;151;27358;-79
2022/10/05 05:39:25;;;;;;;3.97;3.57;;;9.20;99.90;;;;;;935578;151;27378;-79
2022/10/05 05:42:11;;;;;;;5.97;4.73;;;9.20;99.90;;;;;;934423;149;27922;-79
2022/10/05 05:44:40;;;;;;;6.00;5.40;;;9.20;99.90;;;;;;935196;148;27371;-80
2022/10/05 05:47:09;;;;;;;6.10;4.37;;;9.20;99.90;;;;;;934470;151;27427;-79
2022/10/05 05:49:54;;;;;;;5.13;4.03;;;9.30;99.90;;;;;;935076;149;27409;-79
2022/10/05 05:52:24;;;;;;;4.80;3.73;;;9.30;99.90;;;;;;936639;151;27671;-80
2022/10/05 05:54:59;;;;;;;4.67;4.27;;;9.40;99.90;;;;;;944076;146;27511;-79
2022/10/05 05:57:26;;;;;;;4.23;3.83;;;9.50;99.90;;;;;;950706;146;27264;-79
2022/10/05 06:00:05;;;;;;;3.97;3.67;;;9.60;99.90;;;;;;948876;146;27945;-80
2022/10/05 06:02:37;;;;;;;7.07;4.63;;;9.70;99.90;;;;;;950048;146;27313;-79
2022/10/05 06:05:04;;;;;;;5.37;4.50;;;9.90;99.90;;;;;;949452;146;27522;-79
2022/10/05 06:07:30;;;;;;;8.03;4.43;;;10.00;99.90;;;;;;946892;146;27443;-79
2022/10/05 06:10:22;;;;;;;5.23;4.17;;;10.10;99.90;;;;;;950497;146;27315;-78
2022/10/05 06:12:48;;;;;;;4.90;4.10;;;10.30;99.90;;;;;;949078;146;27487;-79
2022/10/05 06:15:30;;;;;;;4.70;4.30;;;10.40;99.90;;;;;;951070;146;27303;-78
2022/10/05 06:17:57;;;;;;;5.17;4.60;;;10.50;99.90;;;;;;951702;146;27362;-79
2022/10/05 06:20:38;;;;;;;4.63;4.03;;;10.70;99.90;;;;;;949394;146;27348;-78
2022/10/05 06:23:20;;;;;;;4.40;3.90;;;10.80;99.90;;;;;;953457;146;27341;-79
2022/10/05 06:25:52;;;;;;;6.67;4.07;;;11.00;99.90;;;;;;951077;146;27386;-78
2022/10/05 06:28:19;;;;;;;4.33;3.87;;;11.10;99.90;;;;;;950011;146;27345;-78
2022/10/05 06:30:48;;;;;;;5.53;4.17;;;11.20;99.90;;;;;;951703;146;28329;-78
2022/10/05 06:33:26;;;;;;;6.03;4.27;;;11.30;99.90;;;;;;951314;146;27332;-78
2022/10/05 06:35:58;;;;;;;5.73;3.70;;;11.40;99.90;;;;;;951046;146;27349;-78
2022/10/05 06:38:37;;;;;;;5.37;4.07;;;11.40;99.90;;;;;;950263;146;27335;-78
2022/10/05 06:41:09;;;;;;;4.37;3.97;;;11.50;99.90;;;;;;950668;146;27327;-79
2022/10/05 06:43:36;;;;;;;4.17;3.77;;;11.60;99.90;;;;;;952524;146;27443;-79
2022/10/05 06:46:09;;;;;;;4.90;4.50;;;11.80;99.90;;;;;;950491;146;27372;-78
2022/10/05 06:49:09;;;;;;;5.73;4.33;;;11.90;99.90;;;;;;950633;146;27410;-79
2022/10/05 06:51:50;;;;;;;5.60;4.90;;;12.10;99.90;;;;;;950014;146;27341;-78
2022/10/05 06:54:27;;;;;;;5.10;4.53;;;12.30;99.90;;;;;;950316;146;27851;-79
2022/10/05 06:56:53;;;;;;;6.50;5.17;;;12.50;99.90;;;;;;932824;148;27337;-79
2022/10/05 06:59:22;;;;;;;4.97;4.57;;;12.70;99.90;;;;;;935115;148;27301;-78
2022/10/05 07:02:04;;;;;;;6.03;5.27;;;12.80;99.90;;;;;;935161;148;27328;-78
2022/10/05 07:04:31;;;;;;;4.93;4.40;;;12.90;99.90;;;;;;933486;148;27356;-79
2022/10/05 07:07:00;;;;;;;8.20;5.23;;;13.10;99.90;;;;;;930878;148;27335;-78
2022/10/05 07:09:30;;;;;;;6.87;5.37;;;13.20;99.90;;;;;;933833;148;27335;-78
2022/10/05 07:12:02;;;;;;;8.97;5.80;;;13.30;99.90;;;;;;932785;148;27358;-79
2022/10/05 07:14:32;;;;;;;8.60;5.13;;;13.40;99.90;;;;;;934158;148;27367;-78
2022/10/05 07:17:13;;;;;;;5.40;4.60;;;13.60;99.90;;;;;;935450;148;27352;-79
2022/10/05 07:20:04;;;;;;;7.57;5.37;;;13.70;99.90;;;;;;933482;148;27338;-79
2022/10/05 07:22:33;;;;;;;12.30;6.17;;;13.80;99.90;;;;;;935983;148;27358;-79
2022/10/05 07:25:09;;;;;;;21.50;8.43;;;13.90;99.90;;;;;;935467;148;27266;-79
2022/10/05 07:27:35;;;;;;;10.20;7.00;;;14.00;99.90;;;;;;933901;148;27342;-78
2022/10/05 07:30:05;;;;;;;8.77;6.83;;;14.20;99.90;;;;;;934286;148;27430;-79
2022/10/05 07:32:50;;;;;;;12.90;7.08;;;14.40;99.90;;;;;;934765;148;27413;-78
2022/10/05 07:38:04;;;;;;;7.55;6.35;;;15.00;99.90;;;;;;932382;151;27754;-79
2022/10/05 07:40:36;;;;;;;7.97;6.10;;;15.50;99.90;;;;;;916633;150;27396;-79
2022/10/05 07:43:05;;;;;;;6.45;5.72;;;15.90;99.90;;;;;;920545;150;27370;-79
2022/10/05 07:45:50;;;;;;;6.20;5.60;;;16.30;99.90;;;;;;931001;148;27365;-79
2022/10/05 07:48:27;;;;;;;6.62;5.80;;;16.70;99.90;;;;;;934145;148;27329;-79
2022/10/05 07:50:55;;;;;;;5.50;4.92;;;17.10;99.90;;;;;;933589;148;27325;-79
2022/10/05 07:53:37;;;;;;;5.45;4.97;;;17.40;99.90;;;;;;935912;148;27455;-79
2022/10/05 07:56:09;;;;;;;5.17;4.67;;;17.60;99.90;;;;;;933737;148;27512;-79
2022/10/05 07:58:36;;;;;;;5.70;5.20;;;17.90;99.90;;;;;;933959;148;27383;-79
2022/10/05 08:01:18;;;;;;;6.08;5.55;;;18.20;99.90;;;;;;932275;148;27399;-79
2022/10/05 08:03:56;;;;;;;7.20;5.70;;;18.50;99.90;;;;;;933044;148;27440;-79
2022/10/05 08:06:31;;;;;;;6.40;5.45;;;18.70;99.30;;;;;;933449;148;28028;-79
2022/10/05 08:09:04;;;;;;;6.12;5.53;;;19.00;99.50;;;;;;933310;148;27362;-79
2022/10/05 08:11:31;;;;;;;7.20;5.58;;;19.40;99.90;;;;;;931125;148;27437;-79
2022/10/05 08:14:00;;;;;;;5.70;5.17;;;20.00;99.90;;;;;;933019;148;27287;-79
2022/10/05 08:16:27;;;;;;;5.28;4.78;;;20.70;99.90;;;;;;935196;148;27411;-79
2022/10/05 08:18:59;;;;;;;5.40;4.35;;;21.60;99.90;;;;;;934153;148;27952;-79
2022/10/05 08:21:41;;;;;;;4.67;4.25;;;22.50;99.90;;;;;;933297;148;27342;-79
2022/10/05 08:24:13;;;;;;;4.17;3.87;;;23.40;98.70;;;;;;932108;148;27343;-79
2022/10/05 08:27:04;;;;;;;4.00;3.62;;;24.50;96.40;;;;;;934607;148;27311;-79
2022/10/05 08:29:43;;;;;;;5.92;4.37;;;25.40;93.60;;;;;;933542;148;27315;-79
2022/10/05 08:32:18;;;;;;;6.58;4.20;;;26.40;90.70;;;;;;932835;148;27387;-79
2022/10/05 08:34:48;;;;;;;3.45;3.15;;;27.30;87.10;;;;;;927404;150;27402;-79
2022/10/05 08:37:23;;;;;;;3.92;3.55;;;28.00;82.00;;;;;;925366;150;27457;-79
2022/10/05 08:40:08;;;;;;;5.90;3.90;;;28.60;77.60;;;;;;929968;150;27329;-79
2022/10/05 08:42:38;;;;;;;3.35;3.15;;;29.10;74.70;;;;;;927281;150;27349;-79
2022/10/05 08:45:35;;;;;;;3.20;3.00;;;29.50;72.60;;;;;;928313;150;27900;-79
2022/10/05 08:48:22;;;;;;;4.65;3.00;;;29.90;70.40;;;;;;929284;150;27439;-79
2022/10/05 08:51:10;;;;;;;3.40;3.10;;;30.20;69.10;;;;;;927600;149;27378;-79
2022/10/05 08:53:58;;;;;;;2.77;2.58;;;30.50;68.00;;;;;;928279;150;26289;-79
2022/10/05 08:56:33;;;;;;;3.42;2.62;;;30.80;67.10;;;;;;923786;150;28514;-79
2022/10/05 08:59:15;;;;;;;3.25;3.05;;;31.10;65.70;;;;;;918635;152;27354;-79
2022/10/05 09:02:16;;;;;;;4.75;2.70;;;31.30;64.10;;;;;;935020;151;27420;-79
2022/10/05 09:04:45;;;;;;;2.55;2.35;;;31.40;61.90;;;;;;932724;151;27416;-79
2022/10/05 09:07:45;;;;;;;2.33;2.22;;;31.40;61.10;;;;;;934513;151;26325;-79
2022/10/05 09:10:27;;;;;;;2.30;2.02;;;31.30;60.40;;;;;;933469;151;27347;-79
2022/10/05 09:12:57;;;;;;;2.65;2.45;;;31.30;60.40;;;;;;934300;151;27387;-80
2022/10/05 09:15:44;;;;;;;2.15;2.05;;;31.20;59.80;;;;;;934376;151;27308;-79
2022/10/05 09:18:35;;;;;;;2.62;2.42;;;31.20;59.50;;;;;;934328;149;27332;-79
2022/10/05 09:21:02;;;;;;;2.42;2.10;;;31.10;59.60;;;;;;934761;151;27332;-79
2022/10/05 09:23:37;;;;;;;2.08;1.90;;;31.10;59.60;;;;;;935887;151;27380;-79
2022/10/05 09:26:29;;;;;;;2.52;2.25;;;31.10;59.10;;;;;;934369;151;27646;-79
2022/10/05 09:29:01;;;;;;;2.35;2.15;;;31.10;59.00;;;;;;934059;151;27405;-79
2022/10/05 09:31:49;;;;;;;3.60;2.12;;;31.00;58.40;;;;;;933849;151;27822;-79
2022/10/05 09:34:24;;;;;;;2.52;2.33;;;31.00;58.30;;;;;;935265;151;27275;-79
2022/10/05 09:36:57;;;;;;;2.17;1.98;;;30.80;57.80;;;;;;931390;151;27441;-79
2022/10/05 09:39:23;;;;;;;2.40;2.20;;;30.60;57.60;;;;;;934448;151;27344;-79
2022/10/05 09:42:02;;;;;;;2.50;2.30;;;30.40;57.50;;;;;;934547;149;27340;-79
2022/10/05 09:44:31;;;;;;;3.40;2.47;;;30.20;57.60;;;;;;934179;151;27402;-79
2022/10/05 09:47:04;;;;;;;2.25;2.05;;;29.90;57.80;;;;;;936554;151;27385;-79
2022/10/05 09:49:39;;;;;;;3.47;2.50;;;29.70;57.70;;;;;;932352;151;27418;-79
2022/10/05 09:52:21;;;;;;;3.02;2.33;;;29.50;57.70;;;;;;934846;151;27311;-79
2022/10/05 09:55:04;;;;;;;3.47;2.33;;;29.30;57.60;;;;;;931174;151;27346;-79
2022/10/05 09:57:54;;;;;;;2.70;2.50;;;29.00;57.60;;;;;;933234;149;27377;-78
2022/10/05 10:00:25;;;;;;;2.80;2.60;;;28.80;57.70;;;;;;933362;151;27467;-78
2022/10/05 10:03:11;;;;;;;2.47;2.30;;;28.50;57.50;;;;;;934553;151;27347;-78
2022/10/05 10:05:45;;;;;;;2.55;2.35;;;28.30;57.70;;;;;;934781;151;27425;-78
2022/10/05 10:08:31;;;;;;;2.67;2.47;;;28.00;57.90;;;;;;936649;151;27269;-78
2022/10/05 10:11:03;;;;;;;3.85;2.50;;;27.80;57.90;;;;;;934848;151;27872;-78
2022/10/05 10:13:36;;;;;;;3.17;2.60;;;27.60;57.90;;;;;;934177;151;27370;-79
2022/10/05 10:16:05;;;;;;;3.22;2.35;;;27.40;58.00;;;;;;934691;148;27343;-78
2022/10/05 10:18:32;;;;;;;2.62;2.42;;;27.20;58.20;;;;;;934162;149;27331;-78
2022/10/05 10:20:58;;;;;;;2.55;2.35;;;27.00;58.00;;;;;;936960;151;27344;-79
2022/10/05 10:23:57;;;;;;;2.10;1.90;;;26.80;58.60;;;;;;934866;151;27854;-79
2022/10/05 10:26:47;;;;;;;3.00;2.05;;;26.70;58.90;;;;;;935678;148;27452;-79
2022/10/05 10:29:25;;;;;;;2.65;2.33;;;26.50;59.00;;;;;;936221;151;27468;-79
2022/10/05 10:32:00;;;;;;;3.08;2.50;;;26.30;58.80;;;;;;935504;149;27290;-79
2022/10/05 10:34:42;;;;;;;2.37;2.17;;;26.10;59.00;;;;;;934940;151;27386;-78
2022/10/05 10:37:30;;;;;;;1.95;1.75;;;26.00;59.20;;;;;;931988;148;27335;-79
2022/10/05 10:40:29;;;;;;;2.90;1.75;;;25.80;59.50;;;;;;935725;151;27348;-79
2022/10/05 10:43:11;;;;;;;1.75;1.65;;;25.60;59.70;;;;;;935104;151;27383;-79
2022/10/05 10:45:56;;;;;;;1.40;1.30;;;25.40;60.00;;;;;;934653;151;27384;-79
2022/10/05 10:48:29;;;;;;;2.90;1.45;;;25.30;60.30;;;;;;935995;151;27296;-78
2022/10/05 10:51:18;;;;;;;3.27;1.50;;;25.20;60.60;;;;;;936112;149;27356;-78
2022/10/05 10:54:02;;;;;;;1.52;1.42;;;25.10;60.90;;;;;;936129;149;27389;-78
2022/10/05 10:56:42;;;;;;;1.27;1.17;;;25.10;60.90;;;;;;936539;151;27436;-78
2022/10/05 10:59:18;;;;;;;1.52;1.42;;;25.00;61.10;;;;;;933817;151;27468;-79
2022/10/05 11:01:47;;;;;;;1.50;1.40;;;25.00;61.00;;;;;;937331;151;27350;-78
2022/10/05 11:04:32;;;;;;;1.30;1.30;;;25.00;61.00;;;;;;935398;148;27276;-78
2022/10/05 11:07:08;;;;;;;2.35;1.40;;;25.00;61.00;;;;;;935887;151;27410;-79
2022/10/05 11:09:46;;;;;;;1.82;1.17;;;25.00;61.40;;;;;;934657;151;27400;-79
2022/10/05 11:12:34;;;;;;;1.50;1.40;;;25.00;61.30;;;;;;935099;148;27374;-78
2022/10/05 11:15:31;;;;;;;2.45;1.20;;;25.00;61.50;;;;;;936092;148;27384;-79
2022/10/05 11:18:19;;;;;;;1.87;1.40;;;25.10;61.80;;;;;;934682;149;27395;-79
2022/10/05 11:21:15;;;;;;;2.50;1.40;;;25.10;61.80;;;;;;934536;151;27452;-79
2022/10/05 11:23:51;;;;;;;2.08;1.52;;;25.10;61.50;;;;;;933734;151;27339;-79
2022/10/05 11:26:45;;;;;;;1.60;1.50;;;25.10;61.70;;;;;;935413;151;27409;-78
2022/10/05 11:29:36;;;;;;;1.80;1.37;;;25.10;61.90;;;;;;934584;151;27433;-79
2022/10/05 11:32:24;;;;;;;1.67;1.57;;;25.10;62.00;;;;;;934903;151;27284;-78
2022/10/05 11:35:18;;;;;;;1.60;1.50;;;25.20;62.10;;;;;;935594;148;27354;-78
2022/10/05 11:37:56;;;;;;;2.17;1.85;;;25.20;62.20;;;;;;934997;152;27381;-79
2022/10/05 11:40:44;;;;;;;1.70;1.60;;;25.20;62.10;;;;;;917349;151;27372;-78
2022/10/05 11:43:44;;;;;;;2.75;1.60;;;25.30;62.10;;;;;;918523;154;27327;-78
2022/10/05 11:46:16;;;;;;;1.62;1.57;;;25.30;62.00;;;;;;909567;156;27496;-78
2022/10/05 11:48:52;;;;;;;1.72;1.60;;;25.40;62.00;;;;;;918287;153;27364;-78
2022/10/05 11:51:48;;;;;;;1.85;1.57;;;25.40;61.90;;;;;;917298;154;27409;-78
2022/10/05 11:54:18;;;;;;;2.08;1.55;;;25.40;62.00;;;;;;935747;151;27378;-78
2022/10/05 11:57:00;;;;;;;2.02;1.92;;;25.40;62.20;;;;;;935409;151;27459;-78
2022/10/05 11:59:41;;;;;;;3.40;2.10;;;25.40;62.00;;;;;;935250;149;27415;-78
2022/10/05 12:02:44;;;;;;;1.77;1.67;;;25.40;62.10;;;;;;953017;146;27394;-78
2022/10/05 12:05:32;;;;;;;1.72;1.62;;;25.40;61.70;;;;;;951679;146;27346;-78
2022/10/05 12:08:10;;;;;;;2.75;1.90;;;25.30;61.50;;;;;;952699;146;27376;-78
2022/10/05 12:11:04;;;;;;;2.27;1.67;;;25.20;61.70;;;;;;950654;146;27385;-78
2022/10/05 12:13:36;;;;;;;1.77;1.67;;;25.10;61.50;;;;;;950846;146;28779;-78
2022/10/05 12:16:18;;;;;;;1.80;1.70;;;25.00;61.90;;;;;;950743;146;27346;-78
2022/10/05 12:19:05;;;;;;;2.92;1.90;;;24.90;62.10;;;;;;950705;146;27429;-78
2022/10/05 12:21:32;;;;;;;2.05;1.87;;;24.70;62.10;;;;;;953677;146;27456;-78
2022/10/05 12:24:22;;;;;;;2.20;2.00;;;24.70;62.40;;;;;;953083;146;27436;-78
2022/10/05 12:26:49;;;;;;;2.22;1.90;;;24.60;62.60;;;;;;951075;146;27448;-78
2022/10/05 12:29:33;;;;;;;1.65;1.55;;;24.60;62.90;;;;;;950595;146;27338;-78
2022/10/05 12:32:01;;;;;;;2.00;1.70;;;24.50;62.90;;;;;;950958;146;27495;-78
2022/10/05 12:34:46;;;;;;;2.27;1.70;;;24.50;63.10;;;;;;948377;146;27277;-78
2022/10/05 12:37:36;;;;;;;1.82;1.72;;;24.50;63.10;;;;;;950413;146;27349;-79
2022/10/05 12:40:05;;;;;;;2.22;1.90;;;24.50;63.20;;;;;;951480;146;27359;-78
2022/10/05 12:42:51;;;;;;;2.65;1.85;;;24.50;63.20;;;;;;951283;146;27410;-79
2022/10/05 12:45:23;;;;;;;1.90;1.80;;;24.50;63.30;;;;;;942585;146;27376;-78
2022/10/05 12:48:11;;;;;;;3.77;2.30;;;24.50;63.40;;;;;;948948;146;27831;-78
2022/10/05 12:50:40;;;;;;;2.27;1.77;;;24.40;63.40;;;;;;950512;146;27452;-78
2022/10/05 12:53:28;;;;;;;2.75;1.92;;;24.40;63.40;;;;;;952219;146;27299;-78
2022/10/05 12:56:00;;;;;;;2.70;2.00;;;24.30;63.40;;;;;;951569;146;27417;-78
2022/10/05 12:58:45;;;;;;;2.60;2.00;;;24.30;63.70;;;;;;933374;149;27459;-78
2022/10/05 13:01:29;;;;;;;2.05;1.92;;;24.20;63.70;;;;;;935219;148;27340;-79
2022/10/05 13:04:05;;;;;;;3.58;1.98;;;24.20;63.90;;;;;;932891;148;27370;-78
2022/10/05 13:06:50;;;;;;;3.05;1.80;;;24.10;64.00;;;;;;932209;148;27310;-78
2022/10/05 13:09:28;;;;;;;2.27;1.92;;;24.10;64.10;;;;;;934721;148;27330;-79
2022/10/05 13:11:55;;;;;;;2.00;1.80;;;24.10;64.40;;;;;;934949;148;27359;-78
2022/10/05 13:14:24;;;;;;;2.65;2.00;;;24.00;64.40;;;;;;933997;148;27320;-78
2022/10/05 13:16:58;;;;;;;2.27;2.02;;;24.00;64.60;;;;;;933691;148;27468;-78
2022/10/05 13:19:26;;;;;;;3.67;2.15;;;24.00;64.60;;;;;;932787;148;27319;-78
2022/10/05 13:22:21;;;;;;;2.75;2.55;;;24.00;64.60;;;;;;935150;148;27356;-78
2022/10/05 13:24:59;;;;;;;3.02;2.10;;;24.00;64.60;;;;;;932482;148;27311;-78
2022/10/05 13:27:29;;;;;;;2.20;2.00;;;24.00;64.80;;;;;;934431;148;27382;-78
2022/10/05 13:30:01;;;;;;;3.05;2.12;;;24.00;64.80;;;;;;933302;148;27973;-78
2022/10/05 13:32:35;;;;;;;2.25;2.05;;;24.00;64.90;;;;;;937037;148;27363;-78
2022/10/05 13:35:04;;;;;;;2.65;2.45;;;24.00;65.10;;;;;;932917;148;27470;-78
2022/10/05 13:37:49;;;;;;;2.00;1.90;;;24.00;65.10;;;;;;936172;147;27350;-78
2022/10/05 13:40:34;;;;;;;2.15;1.98;;;24.00;65.20;;;;;;938182;149;27423;-78
2022/10/05 13:43:06;;;;;;;2.40;2.20;;;24.00;65.20;;;;;;934955;149;27434;-79